sensor_id;sensor_type;location;lat;lon;timestamp;temperature;humidity
9107;DHT22;4589;48.690;8.952;2023-07-02T00:06:25;15.10;99.90
9107;DHT22;4589;48.690;8.952;2023-07-02T00:11:17;15.00;99.90
9107;DHT22;4589;48.690;8.952;2023-07-02T00:13:43;14.90;99.90
9107;DHT22;4589;48.690;8.952;2023-07-02T00:18:34;14.90;99.90
9107;DHT22;4589;48.690;8.952;2023-07-02T00:21:03;14.90;99.90
9107;DHT22;4589;48.690;8.952;2023-07-02T00:23:29;14.90;99.90
9107;DHT22;4589;48.690;8.952;2023-07-02T00:38:05;15.00;99.90
9107;DHT22;4589;48.690;8.952;2023-07-02T00:40:30;15.00;99.90
9107;DHT22;4589;48.690;8.952;2023-07-02T00:42:56;15.00;99.90
9107;DHT22;4589;48.690;8.952;2023-07-02T00:45:22;15.00;99.90
9107;DHT22;4589;48.690;8.952;2023-07-02T00:50:13;15.00;99.90
9107;DHT22;4589;48.690;8.952;2023-07-02T00:55:05;15.00;99.90
9107;DHT22;4589;48.690;8.952;2023-07-02T00:57:31;15.00;99.90
9107;DHT22;4589;48.690;8.952;2023-07-02T00:59:58;15.00;99.90
9107;DHT22;4589;48.690;8.952;2023-07-02T01:02:25;15.00;99.90
9107;DHT22;4589;48.690;8.952;2023-07-02T01:04:51;15.00;99.90
9107;DHT22;4589;48.690;8.952;2023-07-02T01:12:16;14.80;99.90
9107;DHT22;4589;48.690;8.952;2023-07-02T01:14:46;14.70;99.90
9107;DHT22;4589;48.690;8.952;2023-07-02T01:19:46;14.70;99.90
9107;DHT22;4589;48.690;8.952;2023-07-02T01:24:46;14.50;99.90
9107;DHT22;4589;48.690;8.952;2023-07-02T01:27:15;14.50;99.90
9107;DHT22;4589;48.690;8.952;2023-07-02T01:29:41;14.40;99.90
9107;DHT22;4589;48.690;8.952;2023-07-02T01:32:08;14.30;99.90
9107;DHT22;4589;48.690;8.952;2023-07-02T01:34:34;14.30;99.90
9107;DHT22;4589;48.690;8.952;2023-07-02T01:37:01;14.20;99.90
9107;DHT22;4589;48.690;8.952;2023-07-02T01:39:26;14.10;99.90
9107;DHT22;4589;48.690;8.952;2023-07-02T01:41:54;14.00;99.90
9107;DHT22;4589;48.690;8.952;2023-07-02T01:44:20;14.00;99.90
9107;DHT22;4589;48.690;8.952;2023-07-02T01:46:46;14.00;99.90
9107;DHT22;4589;48.690;8.952;2023-07-02T01:49:16;14.10;99.90
9107;DHT22;4589;48.690;8.952;2023-07-02T01:51:51;14.10;99.90
9107;DHT22;4589;48.690;8.952;2023-07-02T01:54:18;14.00;99.90
9107;DHT22;4589;48.690;8.952;2023-07-02T01:56:44;14.00;99.90
9107;DHT22;4589;48.690;8.952;2023-07-02T02:01:36;14.00;99.90
9107;DHT22;4589;48.690;8.952;2023-07-02T02:04:02;14.00;99.90
9107;DHT22;4589;48.690;8.952;2023-07-02T02:13:45;14.00;99.90
9107;DHT22;4589;48.690;8.952;2023-07-02T02:18:37;14.00;99.90
9107;DHT22;4589;48.690;8.952;2023-07-02T02:23:28;14.10;99.90
9107;DHT22;4589;48.690;8.952;2023-07-02T02:28:20;14.10;99.90
9107;DHT22;4589;48.690;8.952;2023-07-02T02:35:37;14.30;99.90
9107;DHT22;4589;48.690;8.952;2023-07-02T02:38:03;14.30;99.90
9107;DHT22;4589;48.690;8.952;2023-07-02T02:40:30;14.40;99.90
9107;DHT22;4589;48.690;8.952;2023-07-02T02:42:55;14.40;99.90
9107;DHT22;4589;48.690;8.952;2023-07-02T02:55:06;14.50;99.90
9107;DHT22;4589;48.690;8.952;2023-07-02T02:57:33;14.60;99.90
9107;DHT22;4589;48.690;8.952;2023-07-02T03:02:25;14.70;99.90
9107;DHT22;4589;48.690;8.952;2023-07-02T03:04:51;14.70;99.90
9107;DHT22;4589;48.690;8.952;2023-07-02T03:07:16;14.70;99.90
9107;DHT22;4589;48.690;8.952;2023-07-02T03:09:42;14.80;99.90
9107;DHT22;4589;48.690;8.952;2023-07-02T03:12:08;14.80;99.90
9107;DHT22;4589;48.690;8.952;2023-07-02T03:14:34;14.70;99.90
9107;DHT22;4589;48.690;8.952;2023-07-02T03:16:59;14.60;99.90
9107;DHT22;4589;48.690;8.952;2023-07-02T03:19:25;14.60;99.90
9107;DHT22;4589;48.690;8.952;2023-07-02T03:26:43;14.40;99.90
9107;DHT22;4589;48.690;8.952;2023-07-02T03:34:07;14.20;99.90
9107;DHT22;4589;48.690;8.952;2023-07-02T03:36:33;14.20;99.90
9107;DHT22;4589;48.690;8.952;2023-07-02T03:38:59;14.20;99.90
9107;DHT22;4589;48.690;8.952;2023-07-02T03:43:50;14.20;99.90
9107;DHT22;4589;48.690;8.952;2023-07-02T03:46:16;14.10;99.90
9107;DHT22;4589;48.690;8.952;2023-07-02T03:51:08;14.00;99.90
9107;DHT22;4589;48.690;8.952;2023-07-02T03:53:33;14.00;99.90
9107;DHT22;4589;48.690;8.952;2023-07-02T03:58:25;13.90;99.90
9107;DHT22;4589;48.690;8.952;2023-07-02T04:00:51;13.90;99.90
9107;DHT22;4589;48.690;8.952;2023-07-02T04:03:17;13.90;99.90
9107;DHT22;4589;48.690;8.952;2023-07-02T04:13:01;13.90;99.90
9107;DHT22;4589;48.690;8.952;2023-07-02T04:15:26;14.00;99.90
9107;DHT22;4589;48.690;8.952;2023-07-02T04:17:52;13.90;99.90
9107;DHT22;4589;48.690;8.952;2023-07-02T04:20:19;14.00;99.90
9107;DHT22;4589;48.690;8.952;2023-07-02T04:22:45;14.00;99.90
9107;DHT22;4589;48.690;8.952;2023-07-02T04:25:12;14.00;99.90
9107;DHT22;4589;48.690;8.952;2023-07-02T04:27:42;14.00;99.90
9107;DHT22;4589;48.690;8.952;2023-07-02T04:30:09;14.10;99.90
9107;DHT22;4589;48.690;8.952;2023-07-02T04:32:38;14.00;99.90
9107;DHT22;4589;48.690;8.952;2023-07-02T04:35:09;14.00;99.90
9107;DHT22;4589;48.690;8.952;2023-07-02T04:37:36;14.00;99.90
9107;DHT22;4589;48.690;8.952;2023-07-02T04:42:40;14.10;99.90
9107;DHT22;4589;48.690;8.952;2023-07-02T04:45:07;14.10;99.90
9107;DHT22;4589;48.690;8.952;2023-07-02T04:47:36;14.20;99.90
9107;DHT22;4589;48.690;8.952;2023-07-02T04:50:02;14.40;99.90
9107;DHT22;4589;48.690;8.952;2023-07-02T04:52:27;14.40;99.90
9107;DHT22;4589;48.690;8.952;2023-07-02T04:54:53;14.50;99.90
9107;DHT22;4589;48.690;8.952;2023-07-02T04:59:47;14.50;99.90
9107;DHT22;4589;48.690;8.952;2023-07-02T05:02:13;14.50;99.90
9107;DHT22;4589;48.690;8.952;2023-07-02T05:04:38;14.50;99.90
9107;DHT22;4589;48.690;8.952;2023-07-02T05:07:04;14.50;99.90
9107;DHT22;4589;48.690;8.952;2023-07-02T05:21:40;14.40;99.90
9107;DHT22;4589;48.690;8.952;2023-07-02T05:24:07;14.40;99.90
9107;DHT22;4589;48.690;8.952;2023-07-02T05:26:33;14.40;99.90
9107;DHT22;4589;48.690;8.952;2023-07-02T05:31:24;14.40;99.90
9107;DHT22;4589;48.690;8.952;2023-07-02T05:36:16;14.60;99.90
9107;DHT22;4589;48.690;8.952;2023-07-02T05:38:41;14.80;99.90
9107;DHT22;4589;48.690;8.952;2023-07-02T05:43:33;15.90;99.90
9107;DHT22;4589;48.690;8.952;2023-07-02T05:45:59;16.60;99.90
9107;DHT22;4589;48.690;8.952;2023-07-02T05:48:28;17.10;99.90
9107;DHT22;4589;48.690;8.952;2023-07-02T05:50:54;17.60;99.90
9107;DHT22;4589;48.690;8.952;2023-07-02T05:53:20;18.20;99.90
9107;DHT22;4589;48.690;8.952;2023-07-02T05:58:13;19.10;99.90
9107;DHT22;4589;48.690;8.952;2023-07-02T06:00:39;19.50;99.90
9107;DHT22;4589;48.690;8.952;2023-07-02T06:03:06;19.80;99.90
9107;DHT22;4589;48.690;8.952;2023-07-02T06:05:32;20.10;99.90
9107;DHT22;4589;48.690;8.952;2023-07-02T06:07:58;20.30;99.90
9107;DHT22;4589;48.690;8.952;2023-07-02T06:10:23;20.50;99.90
9107;DHT22;4589;48.690;8.952;2023-07-02T06:12:49;20.60;99.90
9107;DHT22;4589;48.690;8.952;2023-07-02T06:22:33;20.00;99.90
9107;DHT22;4589;48.690;8.952;2023-07-02T06:24:59;19.70;99.90
9107;DHT22;4589;48.690;8.952;2023-07-02T06:27:24;19.60;99.90
9107;DHT22;4589;48.690;8.952;2023-07-02T06:29:50;19.30;99.90
9107;DHT22;4589;48.690;8.952;2023-07-02T06:37:09;18.70;99.90
9107;DHT22;4589;48.690;8.952;2023-07-02T06:39:34;18.50;99.90
9107;DHT22;4589;48.690;8.952;2023-07-02T06:49:18;17.90;99.90
9107;DHT22;4589;48.690;8.952;2023-07-02T06:54:09;18.20;99.90
9107;DHT22;4589;48.690;8.952;2023-07-02T06:56:35;18.60;99.90
9107;DHT22;4589;48.690;8.952;2023-07-02T06:59:01;19.00;99.90
9107;DHT22;4589;48.690;8.952;2023-07-02T07:01:27;19.40;99.90
9107;DHT22;4589;48.690;8.952;2023-07-02T07:08:46;20.10;99.90
9107;DHT22;4589;48.690;8.952;2023-07-02T07:20:55;20.10;99.90
9107;DHT22;4589;48.690;8.952;2023-07-02T07:23:21;20.10;99.90
9107;DHT22;4589;48.690;8.952;2023-07-02T07:25:46;19.80;99.90
9107;DHT22;4589;48.690;8.952;2023-07-02T07:28:12;19.70;99.90
9107;DHT22;4589;48.690;8.952;2023-07-02T07:30:41;19.60;99.90
9107;DHT22;4589;48.690;8.952;2023-07-02T07:33:07;19.50;99.90
9107;DHT22;4589;48.690;8.952;2023-07-02T07:35:32;19.30;99.90
9107;DHT22;4589;48.690;8.952;2023-07-02T07:40:24;19.10;99.90
9107;DHT22;4589;48.690;8.952;2023-07-02T07:42:49;19.10;99.90
9107;DHT22;4589;48.690;8.952;2023-07-02T07:45:15;19.10;99.90
9107;DHT22;4589;48.690;8.952;2023-07-02T07:47:40;19.00;99.90
9107;DHT22;4589;48.690;8.952;2023-07-02T07:50:07;19.40;99.90
9107;DHT22;4589;48.690;8.952;2023-07-02T07:52:38;19.60;99.90
9107;DHT22;4589;48.690;8.952;2023-07-02T07:55:05;19.90;99.90
9107;DHT22;4589;48.690;8.952;2023-07-02T08:02:23;20.40;99.90
9107;DHT22;4589;48.690;8.952;2023-07-02T08:04:49;20.50;99.90
9107;DHT22;4589;48.690;8.952;2023-07-02T08:07:14;20.80;99.90
9107;DHT22;4589;48.690;8.952;2023-07-02T08:09:40;20.80;99.90
9107;DHT22;4589;48.690;8.952;2023-07-02T08:12:06;21.10;99.90
9107;DHT22;4589;48.690;8.952;2023-07-02T08:19:24;21.90;99.90
9107;DHT22;4589;48.690;8.952;2023-07-02T08:21:50;22.40;99.90
9107;DHT22;4589;48.690;8.952;2023-07-02T08:24:15;22.90;99.90
9107;DHT22;4589;48.690;8.952;2023-07-02T08:26:41;22.60;99.90
9107;DHT22;4589;48.690;8.952;2023-07-02T08:29:07;22.10;99.90
9107;DHT22;4589;48.690;8.952;2023-07-02T08:33:58;21.40;99.90
9107;DHT22;4589;48.690;8.952;2023-07-02T08:36:25;21.80;99.90
9107;DHT22;4589;48.690;8.952;2023-07-02T08:41:16;24.00;99.90
9107;DHT22;4589;48.690;8.952;2023-07-02T08:43:43;25.40;99.90
9107;DHT22;4589;48.690;8.952;2023-07-02T08:46:09;26.30;99.90
9107;DHT22;4589;48.690;8.952;2023-07-02T08:48:35;26.90;99.90
9107;DHT22;4589;48.690;8.952;2023-07-02T08:51:02;27.70;99.90
9107;DHT22;4589;48.690;8.952;2023-07-02T08:53:28;27.70;99.90
9107;DHT22;4589;48.690;8.952;2023-07-02T08:55:59;26.40;99.90
9107;DHT22;4589;48.690;8.952;2023-07-02T08:58:25;25.70;99.30
9107;DHT22;4589;48.690;8.952;2023-07-02T09:01:10;25.30;99.90
9107;DHT22;4589;48.690;8.952;2023-07-02T09:03:37;25.60;99.90
9107;DHT22;4589;48.690;8.952;2023-07-02T09:06:04;25.50;98.80
9107;DHT22;4589;48.690;8.952;2023-07-02T09:08:30;25.10;98.40
9107;DHT22;4589;48.690;8.952;2023-07-02T09:14:02;26.10;99.90
9107;DHT22;4589;48.690;8.952;2023-07-02T09:16:29;27.50;98.10
9107;DHT22;4589;48.690;8.952;2023-07-02T09:21:46;26.60;96.20
9107;DHT22;4589;48.690;8.952;2023-07-02T09:31:54;27.60;99.00
9107;DHT22;4589;48.690;8.952;2023-07-02T09:34:36;28.50;97.40
9107;DHT22;4589;48.690;8.952;2023-07-02T09:37:02;27.60;96.20
9107;DHT22;4589;48.690;8.952;2023-07-02T09:39:30;26.30;96.90
9107;DHT22;4589;48.690;8.952;2023-07-02T09:41:58;25.90;98.60
9107;DHT22;4589;48.690;8.952;2023-07-02T09:44:32;27.10;99.90
9107;DHT22;4589;48.690;8.952;2023-07-02T09:47:06;28.30;96.20
9107;DHT22;4589;48.690;8.952;2023-07-02T09:49:33;28.50;94.30
9107;DHT22;4589;48.690;8.952;2023-07-02T09:52:04;29.20;95.30
9107;DHT22;4589;48.690;8.952;2023-07-02T09:54:30;29.80;96.50
9107;DHT22;4589;48.690;8.952;2023-07-02T09:56:56;30.10;93.10
9107;DHT22;4589;48.690;8.952;2023-07-02T09:59:22;29.60;91.20
9107;DHT22;4589;48.690;8.952;2023-07-02T10:01:48;29.00;93.70
9107;DHT22;4589;48.690;8.952;2023-07-02T10:04:14;27.70;93.30
9107;DHT22;4589;48.690;8.952;2023-07-02T10:06:54;28.30;92.70
9107;DHT22;4589;48.690;8.952;2023-07-02T10:09:21;29.20;99.10
9107;DHT22;4589;48.690;8.952;2023-07-02T10:11:59;29.50;90.60
9107;DHT22;4589;48.690;8.952;2023-07-02T10:14:24;29.10;96.20
9107;DHT22;4589;48.690;8.952;2023-07-02T10:16:54;28.90;93.80
9107;DHT22;4589;48.690;8.952;2023-07-02T10:19:20;28.00;91.10
9107;DHT22;4589;48.690;8.952;2023-07-02T10:21:47;26.90;93.10
9107;DHT22;4589;48.690;8.952;2023-07-02T10:24:25;25.90;92.00
9107;DHT22;4589;48.690;8.952;2023-07-02T10:27:01;25.30;96.00
9107;DHT22;4589;48.690;8.952;2023-07-02T10:31:55;26.70;92.60
9107;DHT22;4589;48.690;8.952;2023-07-02T10:34:36;26.50;95.90
9107;DHT22;4589;48.690;8.952;2023-07-02T10:37:03;27.50;96.30
9107;DHT22;4589;48.690;8.952;2023-07-02T10:39:30;28.40;92.70
9107;DHT22;4589;48.690;8.952;2023-07-02T10:42:09;28.90;90.20
9107;DHT22;4589;48.690;8.952;2023-07-02T10:44:52;28.60;85.90
9107;DHT22;4589;48.690;8.952;2023-07-02T10:47:18;28.30;93.30
9107;DHT22;4589;48.690;8.952;2023-07-02T10:49:44;28.50;93.00
9107;DHT22;4589;48.690;8.952;2023-07-02T10:52:10;27.60;90.50
9107;DHT22;4589;48.690;8.952;2023-07-02T10:54:46;28.00;89.10
9107;DHT22;4589;48.690;8.952;2023-07-02T10:57:17;27.20;90.40
9107;DHT22;4589;48.690;8.952;2023-07-02T11:02:11;28.90;93.60
9107;DHT22;4589;48.690;8.952;2023-07-02T11:04:37;28.90;89.60
9107;DHT22;4589;48.690;8.952;2023-07-02T11:07:04;29.20;84.40
9107;DHT22;4589;48.690;8.952;2023-07-02T11:09:29;28.40;84.20
9107;DHT22;4589;48.690;8.952;2023-07-02T11:12:00;28.30;81.40
9107;DHT22;4589;48.690;8.952;2023-07-02T11:14:34;26.70;89.90
9107;DHT22;4589;48.690;8.952;2023-07-02T11:17:02;26.70;91.80
9107;DHT22;4589;48.690;8.952;2023-07-02T11:19:30;26.80;93.70
9107;DHT22;4589;48.690;8.952;2023-07-02T11:21:57;26.60;94.70
9107;DHT22;4589;48.690;8.952;2023-07-02T11:24:36;26.50;91.50
9107;DHT22;4589;48.690;8.952;2023-07-02T11:27:03;26.00;91.80
9107;DHT22;4589;48.690;8.952;2023-07-02T11:29:31;25.60;89.50
9107;DHT22;4589;48.690;8.952;2023-07-02T11:32:06;25.20;90.90
9107;DHT22;4589;48.690;8.952;2023-07-02T11:34:32;25.20;92.00
9107;DHT22;4589;48.690;8.952;2023-07-02T11:36:58;25.60;90.70
9107;DHT22;4589;48.690;8.952;2023-07-02T11:44:16;26.90;95.90
9107;DHT22;4589;48.690;8.952;2023-07-02T11:46:42;27.60;90.90
9107;DHT22;4589;48.690;8.952;2023-07-02T11:51:44;28.70;84.40
9107;DHT22;4589;48.690;8.952;2023-07-02T11:54:14;29.10;86.90
9107;DHT22;4589;48.690;8.952;2023-07-02T11:56:41;29.30;92.80
9107;DHT22;4589;48.690;8.952;2023-07-02T11:59:08;29.00;83.10
9107;DHT22;4589;48.690;8.952;2023-07-02T12:01:33;28.50;84.90
9107;DHT22;4589;48.690;8.952;2023-07-02T12:03:59;27.70;86.90
9107;DHT22;4589;48.690;8.952;2023-07-02T12:06:25;28.50;90.30
9107;DHT22;4589;48.690;8.952;2023-07-02T12:11:16;27.90;84.90
9107;DHT22;4589;48.690;8.952;2023-07-02T12:13:42;28.10;88.50
9107;DHT22;4589;48.690;8.952;2023-07-02T12:16:07;28.60;86.60
9107;DHT22;4589;48.690;8.952;2023-07-02T12:18:33;29.30;88.90
9107;DHT22;4589;48.690;8.952;2023-07-02T12:20:58;29.80;84.90
9107;DHT22;4589;48.690;8.952;2023-07-02T12:23:24;29.80;89.70
9107;DHT22;4589;48.690;8.952;2023-07-02T12:25:49;30.00;77.10
9107;DHT22;4589;48.690;8.952;2023-07-02T12:28:15;30.20;83.80
9107;DHT22;4589;48.690;8.952;2023-07-02T12:30:41;30.20;88.90
9107;DHT22;4589;48.690;8.952;2023-07-02T12:33:06;29.90;82.40
9107;DHT22;4589;48.690;8.952;2023-07-02T12:35:32;29.90;80.40
9107;DHT22;4589;48.690;8.952;2023-07-02T12:37:58;30.20;79.10
9107;DHT22;4589;48.690;8.952;2023-07-02T12:40:23;30.10;79.70
9107;DHT22;4589;48.690;8.952;2023-07-02T12:42:49;29.60;77.70
9107;DHT22;4589;48.690;8.952;2023-07-02T12:45:15;29.40;72.80
9107;DHT22;4589;48.690;8.952;2023-07-02T12:47:41;28.50;76.80
9107;DHT22;4589;48.690;8.952;2023-07-02T12:50:08;28.80;75.60
9107;DHT22;4589;48.690;8.952;2023-07-02T12:52:34;28.40;78.40
9107;DHT22;4589;48.690;8.952;2023-07-02T12:55:00;28.10;73.10
9107;DHT22;4589;48.690;8.952;2023-07-02T12:57:26;27.90;78.50
9107;DHT22;4589;48.690;8.952;2023-07-02T12:59:53;27.70;86.40
9107;DHT22;4589;48.690;8.952;2023-07-02T13:04:45;27.10;78.60
9107;DHT22;4589;48.690;8.952;2023-07-02T13:07:10;26.50;80.00
9107;DHT22;4589;48.690;8.952;2023-07-02T13:09:36;25.70;79.20
9107;DHT22;4589;48.690;8.952;2023-07-02T13:14:28;24.90;79.80
9107;DHT22;4589;48.690;8.952;2023-07-02T13:21:45;25.20;81.70
9107;DHT22;4589;48.690;8.952;2023-07-02T13:24:11;25.30;83.30
9107;DHT22;4589;48.690;8.952;2023-07-02T13:26:37;25.10;82.30
9107;DHT22;4589;48.690;8.952;2023-07-02T13:29:03;25.00;79.70
9107;DHT22;4589;48.690;8.952;2023-07-02T13:31:29;25.10;81.50
9107;DHT22;4589;48.690;8.952;2023-07-02T13:38:46;25.00;84.00
9107;DHT22;4589;48.690;8.952;2023-07-02T13:41:12;25.10;77.90
9107;DHT22;4589;48.690;8.952;2023-07-02T13:43:37;24.90;83.10
9107;DHT22;4589;48.690;8.952;2023-07-02T13:46:03;24.90;81.40
9107;DHT22;4589;48.690;8.952;2023-07-02T13:58:13;24.60;78.60
9107;DHT22;4589;48.690;8.952;2023-07-02T14:00:38;24.60;80.10
9107;DHT22;4589;48.690;8.952;2023-07-02T14:05:30;24.80;84.00
9107;DHT22;4589;48.690;8.952;2023-07-02T14:10:21;24.70;78.90
9107;DHT22;4589;48.690;8.952;2023-07-02T14:12:47;24.60;83.60
9107;DHT22;4589;48.690;8.952;2023-07-02T14:15:13;24.60;80.50
9107;DHT22;4589;48.690;8.952;2023-07-02T14:17:38;24.60;80.60
9107;DHT22;4589;48.690;8.952;2023-07-02T14:22:31;24.50;80.80
9107;DHT22;4589;48.690;8.952;2023-07-02T14:29:48;24.50;83.60
9107;DHT22;4589;48.690;8.952;2023-07-02T14:32:14;24.70;82.90
9107;DHT22;4589;48.690;8.952;2023-07-02T14:34:40;24.90;83.00
9107;DHT22;4589;48.690;8.952;2023-07-02T14:37:06;24.90;81.60
9107;DHT22;4589;48.690;8.952;2023-07-02T14:39:32;24.90;83.40
9107;DHT22;4589;48.690;8.952;2023-07-02T14:41:58;24.80;81.10
9107;DHT22;4589;48.690;8.952;2023-07-02T14:44:24;24.70;81.70
9107;DHT22;4589;48.690;8.952;2023-07-02T14:46:50;24.50;83.00
9107;DHT22;4589;48.690;8.952;2023-07-02T14:51:42;24.20;82.50
9107;DHT22;4589;48.690;8.952;2023-07-02T14:54:07;24.00;83.80
9107;DHT22;4589;48.690;8.952;2023-07-02T14:59:01;24.40;82.00
9107;DHT22;4589;48.690;8.952;2023-07-02T15:01:27;24.70;85.80
9107;DHT22;4589;48.690;8.952;2023-07-02T15:03:53;25.10;81.30
9107;DHT22;4589;48.690;8.952;2023-07-02T15:06:19;25.30;81.00
9107;DHT22;4589;48.690;8.952;2023-07-02T15:08:45;25.10;80.00
9107;DHT22;4589;48.690;8.952;2023-07-02T15:11:13;24.60;79.70
9107;DHT22;4589;48.690;8.952;2023-07-02T15:13:39;24.30;81.00
9107;DHT22;4589;48.690;8.952;2023-07-02T15:16:06;24.20;80.80
9107;DHT22;4589;48.690;8.952;2023-07-02T15:20:58;24.20;82.40
9107;DHT22;4589;48.690;8.952;2023-07-02T15:23:25;24.10;82.90
9107;DHT22;4589;48.690;8.952;2023-07-02T15:25:55;23.80;82.90
9107;DHT22;4589;48.690;8.952;2023-07-02T15:28:21;23.80;86.70
9107;DHT22;4589;48.690;8.952;2023-07-02T15:30:55;24.00;85.40
9107;DHT22;4589;48.690;8.952;2023-07-02T15:33:22;24.10;84.80
9107;DHT22;4589;48.690;8.952;2023-07-02T15:35:48;24.10;84.30
9107;DHT22;4589;48.690;8.952;2023-07-02T15:38:14;24.10;84.40
9107;DHT22;4589;48.690;8.952;2023-07-02T15:43:05;24.50;83.20
9107;DHT22;4589;48.690;8.952;2023-07-02T15:45:31;24.90;81.80
9107;DHT22;4589;48.690;8.952;2023-07-02T15:50:23;25.00;80.80
9107;DHT22;4589;48.690;8.952;2023-07-02T15:55:17;24.90;80.90
9107;DHT22;4589;48.690;8.952;2023-07-02T16:00:10;24.60;81.70
9107;DHT22;4589;48.690;8.952;2023-07-02T16:02:35;24.60;83.70
9107;DHT22;4589;48.690;8.952;2023-07-02T16:05:01;24.90;81.80
9107;DHT22;4589;48.690;8.952;2023-07-02T16:07:27;25.00;82.20
9107;DHT22;4589;48.690;8.952;2023-07-02T16:09:52;25.20;79.90
9107;DHT22;4589;48.690;8.952;2023-07-02T16:12:18;25.30;80.70
9107;DHT22;4589;48.690;8.952;2023-07-02T16:17:09;25.20;81.20
9107;DHT22;4589;48.690;8.952;2023-07-02T16:19:35;25.30;81.80
9107;DHT22;4589;48.690;8.952;2023-07-02T16:22:01;25.10;79.80
9107;DHT22;4589;48.690;8.952;2023-07-02T16:24:31;24.90;78.90
9107;DHT22;4589;48.690;8.952;2023-07-02T16:26:57;24.70;81.60
9107;DHT22;4589;48.690;8.952;2023-07-02T16:29:27;24.50;80.70
9107;DHT22;4589;48.690;8.952;2023-07-02T16:31:57;24.20;80.20
9107;DHT22;4589;48.690;8.952;2023-07-02T16:34:24;24.20;82.40
9107;DHT22;4589;48.690;8.952;2023-07-02T16:36:50;24.10;81.20
9107;DHT22;4589;48.690;8.952;2023-07-02T16:39:17;24.20;81.40
9107;DHT22;4589;48.690;8.952;2023-07-02T16:41:43;24.20;81.30
9107;DHT22;4589;48.690;8.952;2023-07-02T16:44:16;24.10;81.70
9107;DHT22;4589;48.690;8.952;2023-07-02T16:46:44;23.90;82.10
9107;DHT22;4589;48.690;8.952;2023-07-02T16:49:10;23.70;83.50
9107;DHT22;4589;48.690;8.952;2023-07-02T16:51:36;23.60;83.50
9107;DHT22;4589;48.690;8.952;2023-07-02T16:54:05;23.40;82.40
9107;DHT22;4589;48.690;8.952;2023-07-02T16:56:32;23.30;83.60
9107;DHT22;4589;48.690;8.952;2023-07-02T16:58:58;23.00;83.90
9107;DHT22;4589;48.690;8.952;2023-07-02T17:11:09;22.80;84.10
9107;DHT22;4589;48.690;8.952;2023-07-02T17:13:36;22.80;84.00
9107;DHT22;4589;48.690;8.952;2023-07-02T17:16:02;22.90;84.70
9107;DHT22;4589;48.690;8.952;2023-07-02T17:18:30;22.90;86.70
9107;DHT22;4589;48.690;8.952;2023-07-02T17:20:56;22.80;86.80
9107;DHT22;4589;48.690;8.952;2023-07-02T17:23:22;22.70;85.70
9107;DHT22;4589;48.690;8.952;2023-07-02T17:25:49;22.50;87.50
9107;DHT22;4589;48.690;8.952;2023-07-02T17:28:15;22.30;87.70
9107;DHT22;4589;48.690;8.952;2023-07-02T17:35:39;22.20;89.00
9107;DHT22;4589;48.690;8.952;2023-07-02T17:38:04;22.20;87.60
9107;DHT22;4589;48.690;8.952;2023-07-02T17:40:30;22.10;86.70
9107;DHT22;4589;48.690;8.952;2023-07-02T17:42:57;22.10;86.60
9107;DHT22;4589;48.690;8.952;2023-07-02T17:47:49;22.00;89.60
9107;DHT22;4589;48.690;8.952;2023-07-02T17:50:15;22.00;90.30
9107;DHT22;4589;48.690;8.952;2023-07-02T17:52:41;22.00;88.50
9107;DHT22;4589;48.690;8.952;2023-07-02T17:57:32;22.00;88.50
9107;DHT22;4589;48.690;8.952;2023-07-02T17:59:58;22.00;87.40
9107;DHT22;4589;48.690;8.952;2023-07-02T18:02:25;22.00;86.40
9107;DHT22;4589;48.690;8.952;2023-07-02T18:07:19;21.90;86.50
9107;DHT22;4589;48.690;8.952;2023-07-02T18:09:50;21.80;89.50
9107;DHT22;4589;48.690;8.952;2023-07-02T18:12:18;21.70;88.80
9107;DHT22;4589;48.690;8.952;2023-07-02T18:14:44;21.70;88.20
9107;DHT22;4589;48.690;8.952;2023-07-02T18:19:36;21.80;88.50
9107;DHT22;4589;48.690;8.952;2023-07-02T18:22:02;21.70;88.20
9107;DHT22;4589;48.690;8.952;2023-07-02T18:24:29;21.80;88.70
9107;DHT22;4589;48.690;8.952;2023-07-02T18:26:55;21.70;88.90
9107;DHT22;4589;48.690;8.952;2023-07-02T18:29:21;21.70;87.50
9107;DHT22;4589;48.690;8.952;2023-07-02T18:34:14;21.50;89.60
9107;DHT22;4589;48.690;8.952;2023-07-02T18:36:40;21.40;89.10
9107;DHT22;4589;48.690;8.952;2023-07-02T18:53:44;20.90;90.70
9107;DHT22;4589;48.690;8.952;2023-07-02T18:58:36;20.70;90.50
9107;DHT22;4589;48.690;8.952;2023-07-02T19:01:11;20.70;90.30
9107;DHT22;4589;48.690;8.952;2023-07-02T19:03:38;20.50;90.60
9107;DHT22;4589;48.690;8.952;2023-07-02T19:06:08;20.40;90.10
9107;DHT22;4589;48.690;8.952;2023-07-02T19:08:35;20.30;90.40
9107;DHT22;4589;48.690;8.952;2023-07-02T19:11:02;20.10;90.30
9107;DHT22;4589;48.690;8.952;2023-07-02T19:13:28;20.00;90.60
9107;DHT22;4589;48.690;8.952;2023-07-02T19:18:20;19.80;91.30
9107;DHT22;4589;48.690;8.952;2023-07-02T19:23:12;19.50;91.20
9107;DHT22;4589;48.690;8.952;2023-07-02T19:25:38;19.50;91.60
9107;DHT22;4589;48.690;8.952;2023-07-02T19:30:29;19.20;91.60
9107;DHT22;4589;48.690;8.952;2023-07-02T19:32:55;19.10;92.00
9107;DHT22;4589;48.690;8.952;2023-07-02T19:35:21;19.00;92.10
9107;DHT22;4589;48.690;8.952;2023-07-02T19:37:47;18.90;92.10
9107;DHT22;4589;48.690;8.952;2023-07-02T19:40:12;18.80;92.30
9107;DHT22;4589;48.690;8.952;2023-07-02T19:45:04;18.70;92.40
9107;DHT22;4589;48.690;8.952;2023-07-02T19:47:31;18.60;92.90
9107;DHT22;4589;48.690;8.952;2023-07-02T19:49:58;18.60;92.50
9107;DHT22;4589;48.690;8.952;2023-07-02T19:52:26;18.50;92.70
9107;DHT22;4589;48.690;8.952;2023-07-02T19:55:04;18.50;92.70
9107;DHT22;4589;48.690;8.952;2023-07-02T19:59:57;18.20;93.10
9107;DHT22;4589;48.690;8.952;2023-07-02T20:04:59;18.10;93.60
9107;DHT22;4589;48.690;8.952;2023-07-02T20:09:53;17.70;93.70
9107;DHT22;4589;48.690;8.952;2023-07-02T20:12:19;17.60;94.30
9107;DHT22;4589;48.690;8.952;2023-07-02T20:14:45;17.40;94.70
9107;DHT22;4589;48.690;8.952;2023-07-02T20:17:12;17.20;94.70
9107;DHT22;4589;48.690;8.952;2023-07-02T20:19:39;17.00;94.90
9107;DHT22;4589;48.690;8.952;2023-07-02T20:22:05;17.00;95.20
9107;DHT22;4589;48.690;8.952;2023-07-02T20:24:34;17.00;95.60
9107;DHT22;4589;48.690;8.952;2023-07-02T20:27:00;16.90;95.60
9107;DHT22;4589;48.690;8.952;2023-07-02T20:31:51;16.80;95.70
9107;DHT22;4589;48.690;8.952;2023-07-02T20:34:17;16.80;96.00
9107;DHT22;4589;48.690;8.952;2023-07-02T20:36:49;16.70;95.80
9107;DHT22;4589;48.690;8.952;2023-07-02T20:39:16;16.70;96.00
9107;DHT22;4589;48.690;8.952;2023-07-02T20:41:42;16.70;96.10
9107;DHT22;4589;48.690;8.952;2023-07-02T20:44:12;16.70;96.30
9107;DHT22;4589;48.690;8.952;2023-07-02T20:46:44;16.70;96.40
9107;DHT22;4589;48.690;8.952;2023-07-02T20:49:17;16.60;96.30
9107;DHT22;4589;48.690;8.952;2023-07-02T20:51:44;16.60;96.40
9107;DHT22;4589;48.690;8.952;2023-07-02T20:54:14;16.40;96.50
9107;DHT22;4589;48.690;8.952;2023-07-02T20:56:40;16.30;96.80
9107;DHT22;4589;48.690;8.952;2023-07-02T20:59:07;16.20;96.70
9107;DHT22;4589;48.690;8.952;2023-07-02T21:01:36;16.10;96.90
9107;DHT22;4589;48.690;8.952;2023-07-02T21:04:02;16.10;97.20
9107;DHT22;4589;48.690;8.952;2023-07-02T21:06:33;16.00;97.50
9107;DHT22;4589;48.690;8.952;2023-07-02T21:09:00;15.90;97.80
9107;DHT22;4589;48.690;8.952;2023-07-02T21:11:26;15.80;98.00
9107;DHT22;4589;48.690;8.952;2023-07-02T21:13:51;15.70;98.00
9107;DHT22;4589;48.690;8.952;2023-07-02T21:23:35;15.30;98.80
9107;DHT22;4589;48.690;8.952;2023-07-02T21:26:01;15.20;99.00
9107;DHT22;4589;48.690;8.952;2023-07-02T21:28:30;15.10;99.00
9107;DHT22;4589;48.690;8.952;2023-07-02T21:30:56;15.00;99.40